Fort Klamath, Oregon
Current Conditions -  °F | °C
As of 6:53 AM on Wednesday 22 Oct 2014 (Local Time) from KLMT Reporting Station
Overcast Overcast  
Wind Chill: 42°   Ceiling: 9000
Heat Index: 44°   Visibility: 10mi
Dew Point: 37°   Wind: 5mph
Humidity: 76%   Direction: 110°ESE
Pressure: 30.04"   Gusts: NA
Location:  42.7°N, 122°W
Report Text: KLMT 221353Z AUTO 11004KT 10SM SCT070 OVC090 07/03 A3004 RMK AO2 RAB1258E07 SLP161 P0000 T00670028
Loading
Personal Weather Stations






























Interactive Weather Map New forecast layout! Learn more

10-Day Weather Forecast

Advertisements
Track Severe Weather on mobile